createdAt,value
2024-05-09T17:22:56.680Z,59.90
2024-05-09T17:25:24.405Z,60.00
2024-05-09T17:27:52.356Z,59.40
2024-05-09T17:30:28.644Z,58.50
2024-05-09T17:33:03.300Z,57.70
2024-05-09T17:35:31.833Z,56.90
2024-05-09T17:38:01.689Z,56.00
2024-05-09T17:40:34.772Z,55.30
2024-05-09T17:43:06.644Z,54.80
2024-05-09T17:45:38.542Z,54.20
2024-05-09T17:48:07.779Z,53.70
2024-05-09T17:50:37.624Z,53.20
2024-05-09T17:53:06.707Z,52.90
2024-05-09T17:55:35.555Z,53.30
2024-05-09T17:58:05.081Z,52.20
2024-05-09T18:00:39.177Z,51.90
2024-05-09T18:03:13.786Z,51.60
2024-05-09T18:05:44.123Z,51.40
2024-05-09T18:08:13.078Z,51.20
2024-05-09T18:10:41.628Z,50.90
2024-05-09T18:13:10.367Z,50.80
2024-05-09T18:15:38.974Z,50.60
2024-05-09T18:18:08.024Z,50.40
2024-05-09T18:20:42.628Z,50.20
2024-05-09T18:23:16.444Z,50.00
2024-05-09T18:25:46.272Z,49.90
2024-05-09T18:28:15.920Z,49.80
2024-05-09T18:30:44.387Z,49.80
2024-05-09T18:33:12.564Z,49.60
2024-05-09T18:35:45.158Z,49.50
2024-05-09T18:38:13.126Z,49.20
2024-05-09T18:40:43.636Z,49.30
2024-05-09T18:43:13.167Z,49.20
2024-05-09T18:45:41.273Z,49.20
2024-05-09T18:48:10.253Z,49.10
2024-05-09T18:50:40.497Z,49.00
2024-05-09T18:53:11.743Z,49.00
2024-05-09T18:55:41.762Z,48.80
2024-05-09T18:58:09.920Z,48.80
2024-05-09T19:00:40.237Z,48.80
2024-05-09T19:03:12.963Z,48.80
2024-05-09T19:05:43.731Z,48.70
2024-05-09T19:08:13.086Z,48.70
2024-05-09T19:10:45.787Z,48.70
2024-05-09T19:13:14.511Z,48.60
2024-05-09T19:15:45.370Z,48.60
2024-05-09T19:18:14.227Z,48.50
2024-05-09T19:20:43.202Z,48.50
2024-05-09T19:23:11.940Z,48.50
2024-05-09T19:25:43.754Z,48.50
2024-05-09T19:28:11.946Z,48.40
2024-05-09T19:30:42.288Z,48.30
2024-05-09T19:33:14.845Z,48.30
2024-05-09T19:35:43.247Z,48.30
2024-05-09T19:38:11.766Z,48.30
2024-05-09T19:40:40.062Z,48.20
2024-05-09T19:43:08.314Z,48.20
2024-05-09T19:45:36.624Z,48.20
2024-05-09T19:48:06.170Z,48.20
2024-05-09T19:50:41.135Z,48.20
2024-05-09T19:53:13.094Z,48.10
2024-05-09T19:55:41.962Z,48.10
2024-05-09T19:58:10.635Z,48.00
2024-05-09T20:00:41.751Z,48.10
2024-05-09T20:03:13.296Z,48.00
2024-05-09T20:05:46.536Z,48.00
2024-05-09T20:08:15.181Z,47.90
2024-05-09T20:10:43.047Z,48.00
2024-05-09T20:13:10.785Z,47.90
2024-05-09T20:15:38.944Z,47.90
2024-05-09T20:18:07.226Z,47.90
2024-05-09T20:20:39.905Z,47.80
2024-05-09T20:23:11.554Z,47.80
2024-05-09T20:25:39.928Z,47.80
2024-05-09T20:28:07.756Z,47.80
2024-05-09T20:30:36.781Z,47.80
2024-05-09T20:33:07.452Z,47.80
2024-05-09T20:35:37.082Z,47.80
2024-05-09T20:38:05.312Z,47.80
2024-05-09T20:40:38.503Z,47.80
2024-05-09T20:43:09.683Z,47.70
2024-05-09T20:45:38.802Z,47.70
2024-05-09T20:48:08.211Z,47.70
2024-05-09T20:50:39.882Z,47.70
2024-05-09T20:53:14.828Z,47.60
2024-05-09T20:55:44.749Z,47.60
2024-05-09T20:58:13.739Z,47.60
2024-05-09T21:00:44.591Z,47.60
2024-05-09T21:03:16.317Z,47.60
2024-05-09T21:05:46.337Z,47.60
2024-05-09T21:08:14.652Z,48.00
2024-05-09T21:10:42.276Z,47.50
2024-05-09T21:13:10.018Z,47.50
2024-05-09T21:15:38.153Z,47.50
2024-05-09T21:18:06.202Z,47.60
2024-05-09T21:20:34.999Z,47.50
2024-05-09T21:23:03.445Z,47.50
2024-05-09T21:25:32.290Z,47.50
2024-05-09T21:28:00.781Z,47.50
2024-05-09T21:30:38.409Z,47.50
2024-05-09T21:33:12.875Z,47.50
2024-05-09T21:35:43.095Z,47.40
2024-05-09T21:38:11.076Z,47.50
2024-05-09T21:40:39.336Z,47.50
2024-05-09T21:43:08.152Z,47.40
2024-05-09T21:45:39.321Z,47.40
2024-05-09T21:48:07.731Z,47.40
2024-05-09T21:50:40.225Z,47.40
2024-05-09T21:53:11.756Z,47.40
2024-05-09T21:55:39.791Z,47.40
2024-05-09T21:58:08.166Z,47.40
2024-05-09T22:00:39.291Z,47.40
2024-05-09T22:03:10.946Z,47.40
2024-05-09T22:05:42.158Z,47.40
2024-05-09T22:08:11.016Z,47.40
2024-05-09T22:10:39.013Z,47.40
2024-05-09T22:13:07.484Z,47.40
2024-05-09T22:15:37.796Z,47.30
2024-05-09T22:18:08.449Z,47.40
2024-05-09T22:20:39.286Z,47.40
2024-05-09T22:23:08.869Z,47.30
2024-05-09T22:25:38.540Z,47.40
2024-05-09T22:28:06.715Z,47.30
2024-05-09T22:30:38.412Z,47.30
2024-05-09T22:33:09.775Z,47.40
2024-05-09T22:35:38.989Z,47.30
2024-05-09T22:38:06.583Z,47.30
2024-05-09T22:40:44.962Z,47.30
2024-05-09T22:43:22.191Z,47.30
2024-05-09T22:45:52.070Z,47.20
2024-05-09T22:48:20.246Z,47.40
2024-05-09T22:50:48.120Z,47.30
2024-05-09T22:53:16.105Z,47.30
2024-05-09T22:55:43.683Z,47.30
2024-05-09T22:58:11.360Z,47.30
2024-05-09T23:00:39.148Z,47.30
2024-05-09T23:03:06.885Z,47.20
2024-05-09T23:05:34.932Z,47.30
2024-05-09T23:08:03.232Z,47.20
2024-05-09T23:10:36.341Z,47.20
2024-05-09T23:13:07.468Z,47.20
2024-05-09T23:15:37.977Z,47.20
2024-05-09T23:18:06.486Z,47.30
2024-05-09T23:20:38.478Z,47.20
2024-05-09T23:23:08.826Z,47.20
2024-05-09T23:25:37.562Z,47.20
2024-05-09T23:28:06.147Z,47.20
2024-05-09T23:30:38.428Z,47.30
2024-05-09T23:33:10.599Z,47.20
2024-05-09T23:35:39.071Z,47.20
2024-05-09T23:38:06.999Z,47.20
2024-05-09T23:40:38.838Z,47.20
2024-05-09T23:43:09.794Z,47.20
2024-05-09T23:45:37.871Z,47.20
2024-05-09T23:48:06.585Z,47.20
2024-05-09T23:50:37.541Z,47.20
2024-05-09T23:53:08.661Z,47.20
2024-05-09T23:55:38.133Z,47.30
2024-05-09T23:58:06.917Z,47.20
